createdAt,value
2022-12-18T00:00:19.822Z,90.30
2022-12-18T00:01:19.876Z,87.90
2022-12-18T00:02:19.823Z,86.70
2022-12-18T00:03:19.961Z,87.30
2022-12-18T00:04:20.018Z,85.80
2022-12-18T00:05:19.811Z,88.90
2022-12-18T00:06:19.769Z,83.40
2022-12-18T00:07:19.784Z,79.20
2022-12-18T00:08:19.790Z,86.60
2022-12-18T00:09:19.892Z,86.50
2022-12-18T00:10:19.762Z,88.10
2022-12-18T00:11:19.746Z,82.30
2022-12-18T00:12:19.777Z,80.90
2022-12-18T00:13:19.713Z,88.00
2022-12-18T00:14:19.745Z,87.80
2022-12-18T00:15:20.190Z,91.50
2022-12-18T00:16:19.774Z,92.40
2022-12-18T00:17:19.730Z,90.90
2022-12-18T00:18:20.696Z,82.00
2022-12-18T00:19:19.723Z,84.40
2022-12-18T00:20:19.735Z,83.20
2022-12-18T00:21:19.746Z,91.00
2022-12-18T00:22:19.675Z,87.50
2022-12-18T00:23:19.694Z,85.60
2022-12-18T00:24:19.670Z,100.60
2022-12-18T00:25:19.653Z,85.50
2022-12-18T00:26:19.689Z,87.70
2022-12-18T00:27:19.749Z,87.20
2022-12-18T00:28:19.670Z,89.80
2022-12-18T00:29:19.640Z,87.80
2022-12-18T00:30:19.637Z,88.10
2022-12-18T00:31:19.680Z,93.10
2022-12-18T00:32:19.622Z,94.80
2022-12-18T00:33:19.734Z,87.70
2022-12-18T00:34:19.629Z,96.30
2022-12-18T00:35:19.628Z,95.10
2022-12-18T00:36:19.599Z,92.50
2022-12-18T00:37:20.336Z,99.20
2022-12-18T00:38:19.605Z,97.60
2022-12-18T00:39:19.718Z,90.60
2022-12-18T00:40:19.570Z,91.10
2022-12-18T00:41:19.619Z,137.30
2022-12-18T00:42:19.610Z,103.70
2022-12-18T00:43:19.562Z,98.20
2022-12-18T00:44:19.587Z,101.20
2022-12-18T00:45:19.648Z,96.50
2022-12-18T00:46:19.620Z,97.50
2022-12-18T00:47:19.540Z,94.10
2022-12-18T00:48:19.566Z,100.70
2022-12-18T00:49:19.716Z,94.40
2022-12-18T00:50:19.545Z,95.60
2022-12-18T00:51:19.570Z,90.50
2022-12-18T00:52:19.557Z,97.50
2022-12-18T00:53:19.490Z,92.00
2022-12-18T00:54:19.619Z,96.90
2022-12-18T00:55:19.507Z,92.60
2022-12-18T00:56:19.483Z,99.10
2022-12-18T00:57:19.541Z,94.90
2022-12-18T00:58:19.488Z,88.70
2022-12-18T00:59:19.469Z,86.10
2022-12-18T01:01:11.585Z,93.60
2022-12-18T01:07:14.982Z,80.70
2022-12-18T01:08:08.051Z,85.30
2022-12-18T01:09:08.049Z,88.40
2022-12-18T01:10:08.032Z,89.30
2022-12-18T01:11:08.031Z,86.00
2022-12-18T01:12:08.023Z,95.10
2022-12-18T01:13:08.065Z,98.30
2022-12-18T01:14:08.015Z,87.20
2022-12-18T01:15:08.000Z,102.90
2022-12-18T01:16:08.021Z,84.90
2022-12-18T01:17:07.996Z,89.00
2022-12-18T01:18:07.978Z,91.20
2022-12-18T01:19:08.483Z,93.10
2022-12-18T01:20:07.993Z,89.10
2022-12-18T01:21:07.968Z,84.60
2022-12-18T01:22:07.973Z,96.00
2022-12-18T01:23:07.968Z,95.60
2022-12-18T01:24:07.951Z,99.20
2022-12-18T01:25:07.999Z,91.60
2022-12-18T01:26:07.956Z,98.50
2022-12-18T01:27:07.943Z,90.70
2022-12-18T01:28:07.928Z,94.70
2022-12-18T01:29:07.924Z,90.40
2022-12-18T01:30:07.919Z,91.10
2022-12-18T01:31:07.957Z,104.50
2022-12-18T01:32:07.949Z,96.90
2022-12-18T01:33:07.892Z,95.90
2022-12-18T01:34:07.888Z,90.90
2022-12-18T01:35:07.893Z,93.20
2022-12-18T01:36:07.870Z,97.50
2022-12-18T01:37:07.931Z,101.90
2022-12-18T01:38:07.873Z,93.90
2022-12-18T01:39:07.856Z,89.70
2022-12-18T01:40:07.863Z,92.30
2022-12-18T01:41:07.847Z,90.50
2022-12-18T01:42:07.834Z,90.20
2022-12-18T01:43:07.863Z,95.30
2022-12-18T01:44:07.833Z,93.10
2022-12-18T01:45:07.831Z,92.50
2022-12-18T01:46:07.895Z,87.20
2022-12-18T01:47:07.848Z,88.40
2022-12-18T01:48:07.805Z,84.90
2022-12-18T01:49:07.862Z,84.80
2022-12-18T01:50:07.810Z,87.00
2022-12-18T01:51:07.794Z,84.50
2022-12-18T01:52:07.822Z,86.70
2022-12-18T01:53:07.814Z,86.60
2022-12-18T01:54:07.807Z,86.40
2022-12-18T01:55:07.855Z,82.40
2022-12-18T01:56:07.761Z,79.10
2022-12-18T01:57:07.754Z,78.90
2022-12-18T01:58:07.742Z,80.80
2022-12-18T01:59:07.742Z,79.20
2022-12-18T02:00:07.747Z,76.30
2022-12-18T02:01:07.843Z,81.30
2022-12-18T02:02:07.875Z,86.80
2022-12-18T02:03:07.746Z,77.30
2022-12-18T02:04:07.695Z,83.30
2022-12-18T02:05:07.730Z,81.50
2022-12-18T02:06:07.720Z,80.60
2022-12-18T02:07:07.768Z,78.10
2022-12-18T02:08:07.725Z,76.90
2022-12-18T02:09:07.692Z,79.60
2022-12-18T02:10:07.713Z,77.80
2022-12-18T02:11:07.690Z,79.80
2022-12-18T02:12:07.684Z,80.50
2022-12-18T02:13:07.786Z,73.60
2022-12-18T02:14:07.661Z,70.40
2022-12-18T02:15:07.659Z,75.00
2022-12-18T02:16:07.699Z,73.20
2022-12-18T02:17:07.644Z,68.10
2022-12-18T02:18:07.619Z,75.50
2022-12-18T02:19:07.705Z,69.10
2022-12-18T02:20:07.622Z,71.90
2022-12-18T02:21:07.623Z,71.60
2022-12-18T02:22:07.619Z,76.50
2022-12-18T02:23:07.592Z,76.80
2022-12-18T02:24:07.603Z,76.00
2022-12-18T02:25:08.028Z,79.10
2022-12-18T02:26:07.571Z,73.20
2022-12-18T02:27:07.575Z,77.70
2022-12-18T02:28:07.564Z,77.10
2022-12-18T02:29:07.613Z,75.60
2022-12-18T02:30:07.555Z,74.70
2022-12-18T02:31:07.664Z,77.60
2022-12-18T02:32:07.529Z,69.50
2022-12-18T02:33:07.550Z,74.50
2022-12-18T02:34:07.523Z,70.60
2022-12-18T02:35:07.566Z,69.50
2022-12-18T02:36:07.532Z,73.20
2022-12-18T02:37:07.557Z,70.70
2022-12-18T02:38:07.503Z,69.60
2022-12-18T02:39:07.503Z,68.30
2022-12-18T02:40:07.507Z,71.40
2022-12-18T02:41:07.484Z,69.00
2022-12-18T02:42:07.470Z,72.60
2022-12-18T02:43:07.571Z,64.40
2022-12-18T02:44:07.470Z,67.90
2022-12-18T02:45:07.514Z,71.60
2022-12-18T02:46:07.477Z,72.50
2022-12-18T02:47:07.466Z,70.30
2022-12-18T02:48:07.422Z,70.90
2022-12-18T02:49:07.493Z,68.70
2022-12-18T02:50:07.443Z,70.90
2022-12-18T02:51:07.425Z,70.90
2022-12-18T02:52:07.420Z,72.40
2022-12-18T02:53:07.416Z,68.70
2022-12-18T02:54:07.415Z,66.50
2022-12-18T02:55:07.461Z,68.70
2022-12-18T02:56:07.400Z,63.60
2022-12-18T02:57:07.382Z,69.50
2022-12-18T02:58:07.394Z,62.80
2022-12-18T02:59:07.369Z,66.00
2022-12-18T03:00:28.466Z,63.70
2022-12-18T03:01:07.409Z,61.20
2022-12-18T03:02:07.493Z,59.30
2022-12-18T03:03:07.417Z,65.50
2022-12-18T03:04:07.346Z,60.00
2022-12-18T03:05:07.341Z,63.20
2022-12-18T03:06:07.376Z,58.80
2022-12-18T03:07:07.349Z,66.00
2022-12-18T03:08:07.313Z,64.90
2022-12-18T03:09:07.302Z,58.30
2022-12-18T03:10:07.345Z,60.20
2022-12-18T03:11:07.289Z,58.70
2022-12-18T03:12:07.370Z,59.20
2022-12-18T03:13:07.310Z,56.80
2022-12-18T03:14:07.289Z,59.80
2022-12-18T03:15:07.272Z,58.60
2022-12-18T03:16:15.097Z,57.80
2022-12-18T03:17:07.329Z,54.50
2022-12-18T03:18:07.301Z,55.80
2022-12-18T03:19:07.229Z,57.70
2022-12-18T03:20:07.246Z,58.00
2022-12-18T03:21:07.242Z,58.10
2022-12-18T03:22:07.230Z,58.10
2022-12-18T03:23:07.231Z,58.30
2022-12-18T03:24:07.308Z,58.40
2022-12-18T03:25:07.202Z,61.40
2022-12-18T03:26:07.726Z,63.10
2022-12-18T03:27:07.178Z,57.90
2022-12-18T03:28:07.192Z,58.70
2022-12-18T03:29:07.204Z,62.00
2022-12-18T03:30:07.639Z,58.30
2022-12-18T03:31:07.198Z,56.50
2022-12-18T03:32:07.228Z,59.90
2022-12-18T03:33:07.186Z,59.70
2022-12-18T03:34:07.170Z,55.10
2022-12-18T03:35:07.152Z,58.70
2022-12-18T03:36:07.243Z,60.20
2022-12-18T03:37:07.132Z,54.10
2022-12-18T03:38:07.148Z,55.80
2022-12-18T03:39:07.153Z,57.70
2022-12-18T03:40:07.147Z,56.20
2022-12-18T03:41:07.115Z,55.60
2022-12-18T03:42:07.173Z,59.90
2022-12-18T03:43:07.103Z,57.70
2022-12-18T03:44:07.104Z,56.40
2022-12-18T03:45:07.114Z,56.40
2022-12-18T03:46:07.182Z,57.80
2022-12-18T03:47:07.073Z,56.90
2022-12-18T03:48:07.189Z,55.40
2022-12-18T03:49:07.079Z,55.90
2022-12-18T03:50:12.326Z,55.30
2022-12-18T03:51:08.058Z,59.70
2022-12-18T03:52:07.069Z,59.30
2022-12-18T03:53:07.050Z,51.50
2022-12-18T03:54:07.123Z,59.40
2022-12-18T03:55:07.031Z,55.60
2022-12-18T03:56:07.019Z,58.70
2022-12-18T03:57:07.007Z,57.60
2022-12-18T03:58:07.027Z,54.10
2022-12-18T03:59:07.011Z,52.50
2022-12-18T04:00:07.063Z,53.60
2022-12-18T04:01:07.041Z,58.90
2022-12-18T04:02:07.056Z,54.70
2022-12-18T04:03:07.049Z,58.30
2022-12-18T04:04:07.154Z,60.10
2022-12-18T04:05:06.973Z,59.80
2022-12-18T04:06:07.014Z,55.80
2022-12-18T04:07:06.979Z,61.10
2022-12-18T04:08:06.950Z,59.80
2022-12-18T04:09:06.952Z,55.60
2022-12-18T04:10:06.962Z,54.00
2022-12-18T04:11:06.938Z,59.10
2022-12-18T04:12:07.002Z,60.20
2022-12-18T04:13:07.004Z,58.20
2022-12-18T04:14:07.503Z,61.80
2022-12-18T04:15:17.102Z,56.80
2022-12-18T04:16:06.980Z,59.10
2022-12-18T04:17:06.903Z,62.90
2022-12-18T04:18:06.988Z,62.80
2022-12-18T04:19:06.903Z,61.40
2022-12-18T04:20:06.931Z,57.90
2022-12-18T04:21:06.874Z,60.90
2022-12-18T04:22:06.871Z,57.70
2022-12-18T04:23:06.882Z,56.00
2022-12-18T04:24:06.942Z,53.80
2022-12-18T04:25:06.838Z,54.70
2022-12-18T04:26:06.863Z,55.10
2022-12-18T04:27:06.846Z,51.50
2022-12-18T04:28:06.836Z,53.00
2022-12-18T04:29:06.837Z,53.80
2022-12-18T04:30:06.876Z,54.70
2022-12-18T04:31:06.877Z,54.40
2022-12-18T04:32:06.794Z,57.20
2022-12-18T04:33:06.863Z,58.20
2022-12-18T04:34:06.794Z,57.80
2022-12-18T04:35:06.787Z,55.80
2022-12-18T04:36:07.104Z,60.30
2022-12-18T04:37:06.771Z,55.40
2022-12-18T04:38:06.801Z,59.80
2022-12-18T04:39:06.765Z,55.20
2022-12-18T04:40:06.800Z,59.30
2022-12-18T04:41:06.755Z,52.00
2022-12-18T04:42:06.855Z,63.10
2022-12-18T04:43:06.794Z,54.70
2022-12-18T04:44:06.767Z,52.40
2022-12-18T04:45:06.740Z,59.90
2022-12-18T04:46:06.775Z,50.00
2022-12-18T04:47:06.721Z,54.00
2022-12-18T04:48:06.746Z,53.00
2022-12-18T04:49:06.686Z,54.80
2022-12-18T04:50:06.683Z,53.90
2022-12-18T04:51:06.698Z,53.10
2022-12-18T04:52:06.730Z,55.30
2022-12-18T04:53:06.677Z,54.50
2022-12-18T04:54:06.728Z,50.10
2022-12-18T04:55:06.661Z,51.90
2022-12-18T04:56:06.663Z,53.70
2022-12-18T04:57:06.663Z,52.00
2022-12-18T04:58:06.634Z,54.30
2022-12-18T04:59:06.657Z,57.60
2022-12-18T05:00:06.720Z,58.10
2022-12-18T05:01:06.624Z,55.00
2022-12-18T05:02:06.705Z,56.10
2022-12-18T05:03:06.619Z,55.40
2022-12-18T05:04:06.677Z,55.30
2022-12-18T05:05:06.618Z,50.30
2022-12-18T05:06:06.621Z,50.30
2022-12-18T05:07:06.597Z,54.00
2022-12-18T05:08:06.630Z,52.00
2022-12-18T05:09:06.566Z,53.00
2022-12-18T05:10:06.562Z,54.30
2022-12-18T05:11:06.566Z,51.60
2022-12-18T05:12:06.640Z,50.60
2022-12-18T05:13:06.559Z,50.20
2022-12-18T05:14:06.554Z,51.40
2022-12-18T05:15:06.573Z,47.30
2022-12-18T05:16:06.684Z,53.90
2022-12-18T05:17:06.527Z,51.50
2022-12-18T05:18:06.595Z,48.80
2022-12-18T05:19:06.503Z,50.50
2022-12-18T05:20:06.515Z,50.10
2022-12-18T05:21:06.522Z,48.90
2022-12-18T05:22:06.501Z,49.60
2022-12-18T05:23:06.491Z,45.80
2022-12-18T05:24:06.613Z,50.40
2022-12-18T05:25:06.479Z,49.10
2022-12-18T05:26:06.469Z,50.80
2022-12-18T05:27:06.464Z,51.50
2022-12-18T05:28:34.591Z,52.60
2022-12-18T05:29:07.537Z,50.80
2022-12-18T05:30:06.464Z,51.50
2022-12-18T05:31:19.013Z,49.50
2022-12-18T05:32:07.464Z,51.00
2022-12-18T05:33:06.445Z,51.70
2022-12-18T05:34:06.448Z,49.70
2022-12-18T05:35:06.495Z,51.40
2022-12-18T05:36:06.443Z,55.30
2022-12-18T05:37:06.432Z,50.00
2022-12-18T05:38:06.423Z,49.20
2022-12-18T05:39:06.443Z,46.70
2022-12-18T05:40:06.472Z,47.60
2022-12-18T05:41:06.923Z,51.40
2022-12-18T05:42:06.380Z,49.10
2022-12-18T05:43:06.385Z,50.40
2022-12-18T05:44:06.379Z,50.40
2022-12-18T05:45:06.360Z,51.20
2022-12-18T05:46:06.428Z,51.80
2022-12-18T05:47:06.439Z,51.40
2022-12-18T05:48:06.358Z,47.00
2022-12-18T05:49:06.344Z,48.30
2022-12-18T05:50:06.361Z,48.50
2022-12-18T05:51:06.336Z,49.10
2022-12-18T05:52:06.345Z,45.90
2022-12-18T05:53:06.394Z,47.50
2022-12-18T05:54:06.326Z,52.70
2022-12-18T05:55:06.329Z,49.90
2022-12-18T05:56:06.366Z,49.20
2022-12-18T05:57:06.314Z,47.90
2022-12-18T05:58:06.301Z,50.40
2022-12-18T05:59:06.353Z,48.70
2022-12-18T06:00:06.285Z,48.20
2022-12-18T06:01:06.279Z,47.20
2022-12-18T06:02:06.345Z,46.50
2022-12-18T06:03:06.335Z,45.90
2022-12-18T06:04:06.316Z,49.20
2022-12-18T06:05:06.319Z,44.70
2022-12-18T06:06:06.243Z,46.40
2022-12-18T06:07:06.252Z,46.60
2022-12-18T06:08:06.244Z,49.30
2022-12-18T06:09:06.219Z,43.60
2022-12-18T06:10:06.216Z,46.90
2022-12-18T06:11:06.274Z,49.10
2022-12-18T06:12:06.276Z,48.70
2022-12-18T06:13:06.203Z,45.50
2022-12-18T06:14:06.211Z,49.60
2022-12-18T06:15:06.188Z,45.60
2022-12-18T06:16:06.249Z,50.10
2022-12-18T06:17:06.222Z,49.20
2022-12-18T06:18:06.174Z,51.20
2022-12-18T06:19:06.163Z,43.60
2022-12-18T06:20:06.176Z,44.40
2022-12-18T06:21:06.148Z,46.30
2022-12-18T06:22:06.144Z,47.70
2022-12-18T06:23:06.186Z,44.40
2022-12-18T06:24:06.119Z,44.40
2022-12-18T06:25:06.142Z,48.20
2022-12-18T06:26:06.118Z,43.20
2022-12-18T06:27:06.125Z,46.30
2022-12-18T06:28:12.055Z,46.70
2022-12-18T06:29:07.208Z,44.80
2022-12-18T06:30:06.100Z,45.40
2022-12-18T06:31:06.170Z,45.40
2022-12-18T06:32:06.087Z,44.50
2022-12-18T06:33:06.071Z,47.00
2022-12-18T06:34:06.072Z,44.80
2022-12-18T06:35:06.090Z,43.40
2022-12-18T06:36:06.050Z,46.40
2022-12-18T06:37:06.061Z,42.00
2022-12-18T06:38:06.044Z,44.50
2022-12-18T06:39:06.039Z,44.40
2022-12-18T06:40:06.004Z,42.40
2022-12-18T06:41:06.101Z,44.60
2022-12-18T06:42:06.017Z,45.10
2022-12-18T06:43:06.027Z,44.10
2022-12-18T06:44:06.013Z,45.70
2022-12-18T06:45:06.051Z,46.50
2022-12-18T06:46:06.093Z,45.10
2022-12-18T06:47:06.309Z,40.40
2022-12-18T06:48:05.979Z,42.10
2022-12-18T06:49:05.980Z,46.40
2022-12-18T06:50:05.978Z,47.40
2022-12-18T06:51:05.971Z,41.80
2022-12-18T06:52:05.953Z,43.60
2022-12-18T06:53:05.999Z,43.90
2022-12-18T06:54:05.932Z,41.40
2022-12-18T06:55:05.920Z,44.60
2022-12-18T06:56:09.877Z,41.60
2022-12-18T06:57:05.931Z,44.10
2022-12-18T06:58:05.922Z,43.40
2022-12-18T06:59:05.983Z,43.40
2022-12-18T07:00:05.930Z,44.50
2022-12-18T07:01:06.087Z,42.50
2022-12-18T07:02:05.991Z,44.40
2022-12-18T07:03:05.913Z,39.90
2022-12-18T07:04:05.888Z,42.00
2022-12-18T07:05:10.550Z,41.10
2022-12-18T07:06:06.899Z,42.20
2022-12-18T07:07:05.875Z,37.70
2022-12-18T07:08:05.872Z,36.90
2022-12-18T07:09:05.842Z,39.90
2022-12-18T07:10:05.861Z,42.00
2022-12-18T07:11:05.912Z,38.00
2022-12-18T07:12:05.857Z,38.70
2022-12-18T07:13:05.843Z,39.30
2022-12-18T07:14:05.839Z,35.60
2022-12-18T07:15:05.833Z,40.60
2022-12-18T07:16:09.739Z,37.60
2022-12-18T07:17:07.029Z,36.10
2022-12-18T07:18:05.837Z,37.60
2022-12-18T07:19:05.816Z,35.80
2022-12-18T07:20:05.870Z,40.90
2022-12-18T07:21:05.800Z,36.70
2022-12-18T07:22:05.789Z,41.60
2022-12-18T07:23:05.854Z,37.20
2022-12-18T07:24:05.755Z,38.30
2022-12-18T07:25:05.799Z,37.80
2022-12-18T07:26:05.764Z,37.30
2022-12-18T07:27:05.762Z,38.60
2022-12-18T07:28:05.745Z,35.40
2022-12-18T07:29:05.803Z,35.60
2022-12-18T07:30:05.736Z,38.40
2022-12-18T07:31:05.756Z,36.30
2022-12-18T07:32:05.771Z,39.70
2022-12-18T07:33:05.782Z,38.70
2022-12-18T07:34:05.719Z,36.20
2022-12-18T07:35:05.772Z,39.20
2022-12-18T07:36:05.702Z,36.90
2022-12-18T07:37:05.717Z,38.60
2022-12-18T07:38:05.671Z,40.80
2022-12-18T07:39:05.665Z,38.20
2022-12-18T07:40:05.684Z,44.00
2022-12-18T07:41:06.715Z,39.20
2022-12-18T07:42:05.681Z,35.30
2022-12-18T07:43:05.660Z,35.50
2022-12-18T07:44:05.645Z,39.70
2022-12-18T07:45:05.649Z,36.80
2022-12-18T07:46:05.727Z,38.00
2022-12-18T07:47:10.476Z,37.90
2022-12-18T07:48:06.637Z,41.40
2022-12-18T07:49:05.692Z,39.60
2022-12-18T07:50:05.639Z,38.50
2022-12-18T07:51:05.625Z,41.00
2022-12-18T07:52:05.611Z,40.20
2022-12-18T07:53:06.370Z,39.60
2022-12-18T07:54:05.619Z,48.10
2022-12-18T07:55:05.584Z,40.40
2022-12-18T07:56:26.563Z,39.10
2022-12-18T07:57:16.557Z,37.00
2022-12-18T07:58:06.607Z,39.70
2022-12-18T07:59:05.575Z,39.80
2022-12-18T08:00:05.573Z,42.80
2022-12-18T08:01:05.608Z,44.70
2022-12-18T08:02:05.721Z,36.40
2022-12-18T08:03:05.593Z,45.40
2022-12-18T08:04:05.619Z,42.20
2022-12-18T08:05:05.582Z,39.30
2022-12-18T08:06:05.523Z,41.00
2022-12-18T08:07:05.547Z,41.20
2022-12-18T08:08:05.508Z,47.90
2022-12-18T08:09:05.506Z,40.00
2022-12-18T08:10:05.574Z,37.50
2022-12-18T08:11:05.501Z,41.00
2022-12-18T08:12:05.499Z,39.80
2022-12-18T08:13:05.529Z,40.30
2022-12-18T08:14:05.478Z,42.50
2022-12-18T08:15:05.483Z,40.10
2022-12-18T08:16:05.550Z,38.90
2022-12-18T08:17:05.519Z,43.20
2022-12-18T08:18:07.234Z,41.20
2022-12-18T08:19:06.454Z,38.60
2022-12-18T08:20:05.452Z,41.50
2022-12-18T08:21:05.488Z,39.70
2022-12-18T08:22:05.481Z,38.50
2022-12-18T08:23:05.447Z,38.70
2022-12-18T08:24:05.394Z,39.00
2022-12-18T08:25:05.410Z,37.60
2022-12-18T08:26:05.416Z,39.60
2022-12-18T08:28:06.480Z,39.00
2022-12-18T08:29:05.397Z,36.80
2022-12-18T08:30:05.365Z,39.30
2022-12-18T08:31:05.437Z,37.70
2022-12-18T08:32:05.427Z,37.90
2022-12-18T08:33:05.363Z,39.40
2022-12-18T08:34:05.439Z,36.80
2022-12-18T08:35:05.352Z,38.30
2022-12-18T08:36:05.349Z,35.40
2022-12-18T08:37:11.227Z,35.10
2022-12-18T08:38:06.375Z,38.00
2022-12-18T08:39:05.306Z,41.90
2022-12-18T08:40:05.357Z,37.50
2022-12-18T08:41:05.323Z,39.80
2022-12-18T08:42:09.906Z,38.70
2022-12-18T08:43:06.301Z,38.30
2022-12-18T08:44:05.297Z,37.20
2022-12-18T08:45:05.283Z,37.40
2022-12-18T08:46:05.359Z,40.00
2022-12-18T08:47:05.269Z,33.30
2022-12-18T08:48:05.283Z,32.80
2022-12-18T08:49:05.258Z,37.90
2022-12-18T08:50:05.258Z,33.50
2022-12-18T08:51:05.236Z,33.20
2022-12-18T08:52:05.283Z,34.70
2022-12-18T08:53:05.224Z,32.40
2022-12-18T08:54:05.305Z,31.90
2022-12-18T08:55:05.249Z,29.80
2022-12-18T08:56:05.223Z,31.50
2022-12-18T08:57:05.208Z,32.80
2022-12-18T08:58:05.652Z,28.60
2022-12-18T08:59:05.198Z,33.50
2022-12-18T09:00:05.213Z,32.00
2022-12-18T09:01:05.318Z,30.00
2022-12-18T09:02:05.332Z,29.90
2022-12-18T09:03:05.224Z,29.40
2022-12-18T09:04:05.236Z,30.80
2022-12-18T09:05:05.181Z,31.30
2022-12-18T09:06:05.152Z,31.60
2022-12-18T09:07:05.158Z,33.30
2022-12-18T09:08:05.171Z,35.00
2022-12-18T09:09:05.147Z,30.70
2022-12-18T09:10:05.236Z,28.70
2022-12-18T09:11:05.129Z,32.90
2022-12-18T09:12:05.141Z,33.70
2022-12-18T09:13:05.136Z,31.10
2022-12-18T09:14:05.120Z,35.10
2022-12-18T09:15:05.123Z,32.70
2022-12-18T09:16:05.172Z,32.30
2022-12-18T09:17:05.161Z,36.00
2022-12-18T09:18:05.112Z,33.80
2022-12-18T09:19:05.091Z,35.50
2022-12-18T09:20:05.090Z,32.40
2022-12-18T09:21:05.073Z,35.40
2022-12-18T09:22:05.137Z,34.30
2022-12-18T09:23:05.048Z,32.50
2022-12-18T09:24:08.017Z,32.20
2022-12-18T09:25:05.062Z,34.90
2022-12-18T09:26:05.121Z,30.40
2022-12-18T09:27:05.045Z,37.80
2022-12-18T09:28:05.088Z,33.40
2022-12-18T09:29:05.018Z,36.70
2022-12-18T09:30:05.058Z,34.20
2022-12-18T09:31:05.086Z,32.20
2022-12-18T09:32:05.040Z,35.60
2022-12-18T09:33:05.021Z,33.70
2022-12-18T09:34:05.034Z,32.30
2022-12-18T09:35:09.817Z,32.20
2022-12-18T09:36:04.977Z,29.60
2022-12-18T09:37:04.975Z,31.10
2022-12-18T09:38:04.963Z,30.20
2022-12-18T09:39:08.214Z,27.80
2022-12-18T09:40:05.015Z,27.00
2022-12-18T09:41:04.952Z,30.80
2022-12-18T09:42:05.018Z,29.30
2022-12-18T09:43:04.957Z,30.20
2022-12-18T09:44:04.945Z,28.20
2022-12-18T09:45:04.993Z,28.70
2022-12-18T09:46:05.009Z,31.00
2022-12-18T09:47:04.925Z,28.90
2022-12-18T09:48:04.922Z,28.30
2022-12-18T09:49:04.925Z,28.10
2022-12-18T09:50:04.915Z,28.60
2022-12-18T09:51:04.883Z,28.90
2022-12-18T09:52:04.951Z,27.30
2022-12-18T09:53:04.896Z,28.50
2022-12-18T09:54:04.902Z,26.60
2022-12-18T09:55:04.890Z,25.00
2022-12-18T09:56:04.871Z,28.80
2022-12-18T09:57:04.846Z,29.30
2022-12-18T09:58:04.963Z,25.20
2022-12-18T09:59:04.833Z,27.70
2022-12-18T10:00:04.830Z,28.50
2022-12-18T10:01:04.860Z,27.60
2022-12-18T10:02:04.857Z,28.20
2022-12-18T10:03:04.931Z,26.60
2022-12-18T10:04:05.104Z,30.00
2022-12-18T10:05:04.811Z,28.60
2022-12-18T10:06:04.784Z,29.60
2022-12-18T10:07:09.083Z,29.20
2022-12-18T10:08:04.800Z,29.10
2022-12-18T10:09:04.778Z,27.10
2022-12-18T10:10:04.832Z,29.70
2022-12-18T10:11:04.746Z,30.70
2022-12-18T10:12:04.763Z,32.90
2022-12-18T10:13:05.098Z,32.60
2022-12-18T10:14:04.797Z,33.70
2022-12-18T10:15:04.727Z,30.60
2022-12-18T10:16:04.858Z,30.50
2022-12-18T10:17:04.718Z,32.60
2022-12-18T10:18:04.711Z,30.30
2022-12-18T10:19:04.704Z,31.00
2022-12-18T10:20:04.708Z,32.20
2022-12-18T10:21:04.667Z,30.80
2022-12-18T10:22:04.739Z,30.40
2022-12-18T10:23:04.672Z,32.40
2022-12-18T10:24:04.673Z,31.50
2022-12-18T10:25:04.659Z,30.50
2022-12-18T10:26:04.637Z,28.90
2022-12-18T10:27:04.623Z,27.80
2022-12-18T10:28:04.702Z,26.70
2022-12-18T10:29:05.892Z,28.90
2022-12-18T10:30:10.532Z,26.80
2022-12-18T10:31:05.716Z,26.60
2022-12-18T10:32:04.603Z,28.60
2022-12-18T10:33:04.580Z,27.00
2022-12-18T10:34:04.638Z,27.70
2022-12-18T10:35:04.559Z,31.10
2022-12-18T10:36:04.574Z,27.50
2022-12-18T10:37:04.570Z,29.80
2022-12-18T10:38:04.541Z,28.90
2022-12-18T10:39:04.560Z,29.50
2022-12-18T10:40:04.611Z,31.40
2022-12-18T10:41:04.531Z,27.00
2022-12-18T10:42:04.529Z,26.60
2022-12-18T10:43:04.516Z,27.10
2022-12-18T10:44:04.527Z,30.00
2022-12-18T10:45:04.464Z,34.10
2022-12-18T10:46:04.596Z,29.30
2022-12-18T10:47:10.194Z,30.50
2022-12-18T10:48:05.497Z,28.60
2022-12-18T10:49:04.448Z,31.30
2022-12-18T10:50:04.476Z,31.00
2022-12-18T10:51:12.982Z,34.40
2022-12-18T10:52:05.497Z,31.90
2022-12-18T10:53:04.422Z,31.60
2022-12-18T10:54:04.431Z,32.10
2022-12-18T10:55:04.416Z,34.60
2022-12-18T10:56:04.404Z,31.70
2022-12-18T10:57:04.400Z,37.20
2022-12-18T10:58:04.442Z,33.50
2022-12-18T10:59:04.389Z,32.70
2022-12-18T11:00:04.369Z,33.30
2022-12-18T11:01:04.366Z,35.90
2022-12-18T11:02:04.474Z,33.60
2022-12-18T11:03:04.589Z,32.60
2022-12-18T11:04:04.923Z,33.00
2022-12-18T11:05:04.346Z,32.90
2022-12-18T11:06:04.326Z,34.70
2022-12-18T11:07:04.315Z,33.00
2022-12-18T11:08:04.335Z,37.70
2022-12-18T11:09:09.367Z,33.80
2022-12-18T11:10:05.369Z,33.30
2022-12-18T11:11:04.275Z,35.20
2022-12-18T11:12:04.289Z,31.70
2022-12-18T11:13:04.275Z,34.10
2022-12-18T11:14:04.273Z,30.90
2022-12-18T11:15:04.271Z,34.30
2022-12-18T11:16:04.379Z,35.70
2022-12-18T11:18:05.239Z,29.90
2022-12-18T11:19:04.282Z,33.80
2022-12-18T11:20:04.240Z,31.40
2022-12-18T11:21:04.215Z,35.50
2022-12-18T11:22:04.251Z,34.00
2022-12-18T11:23:04.218Z,33.80
2022-12-18T11:24:05.202Z,36.50
2022-12-18T11:26:05.181Z,31.40
2022-12-18T11:27:04.161Z,32.50
2022-12-18T11:28:04.239Z,30.40
2022-12-18T11:29:04.155Z,32.30
2022-12-18T11:30:04.151Z,30.80
2022-12-18T11:31:04.205Z,30.40
2022-12-18T11:32:04.141Z,32.00
2022-12-18T11:33:04.154Z,32.70
2022-12-18T11:34:28.209Z,34.30
2022-12-18T11:35:05.171Z,28.70
2022-12-18T11:36:04.144Z,30.50
2022-12-18T11:37:04.177Z,33.00
2022-12-18T11:38:04.092Z,29.10
2022-12-18T11:39:04.092Z,28.70
2022-12-18T11:40:04.138Z,31.50
2022-12-18T11:41:04.081Z,34.30
2022-12-18T11:42:04.082Z,29.90
2022-12-18T11:43:04.059Z,30.20
2022-12-18T11:44:04.045Z,32.30
2022-12-18T11:45:04.045Z,30.70
2022-12-18T11:46:04.132Z,29.60
2022-12-18T11:47:04.101Z,33.00
2022-12-18T11:48:04.031Z,29.10
2022-12-18T11:49:04.027Z,31.50
2022-12-18T11:50:04.022Z,31.70
2022-12-18T11:51:04.089Z,31.20
2022-12-18T11:52:04.049Z,29.10
2022-12-18T11:53:06.160Z,28.90
2022-12-18T11:54:03.986Z,29.60
2022-12-18T11:55:03.984Z,32.20
2022-12-18T11:56:03.980Z,31.50
2022-12-18T11:57:03.932Z,38.90
2022-12-18T11:58:03.982Z,39.00
2022-12-18T11:59:03.951Z,30.00
2022-12-18T12:00:03.953Z,27.80
2022-12-18T12:01:03.940Z,29.10
2022-12-18T12:02:04.036Z,32.10
2022-12-18T12:03:03.990Z,35.60
2022-12-18T12:04:04.055Z,27.80
2022-12-18T12:05:03.902Z,32.10
2022-12-18T12:06:03.895Z,35.30
2022-12-18T12:07:03.965Z,33.70
2022-12-18T12:08:03.893Z,33.30
2022-12-18T12:09:03.871Z,29.70
2022-12-18T12:10:04.121Z,30.90
2022-12-18T12:11:03.847Z,32.30
2022-12-18T12:12:03.834Z,29.90
2022-12-18T12:13:03.818Z,29.20
2022-12-18T12:14:03.836Z,31.60
2022-12-18T12:15:03.830Z,31.20
2022-12-18T12:16:03.910Z,28.70
2022-12-18T12:17:03.786Z,32.50
2022-12-18T12:18:08.181Z,33.10
2022-12-18T12:19:04.795Z,31.50
2022-12-18T12:20:03.794Z,29.30
2022-12-18T12:21:03.792Z,31.10
2022-12-18T12:22:03.827Z,32.70
2022-12-18T12:23:03.824Z,31.80
2022-12-18T12:24:03.769Z,31.60
2022-12-18T12:25:03.765Z,33.40
2022-12-18T12:26:03.761Z,30.30
2022-12-18T12:27:03.732Z,29.00
2022-12-18T12:28:03.772Z,31.80
2022-12-18T12:29:03.727Z,32.50
2022-12-18T12:30:03.711Z,31.90
2022-12-18T12:31:03.721Z,36.00
2022-12-18T12:32:03.800Z,30.30
2022-12-18T12:33:03.729Z,32.40
2022-12-18T12:34:03.774Z,32.00
2022-12-18T12:35:09.219Z,33.70
2022-12-18T12:36:04.671Z,32.20
2022-12-18T12:37:03.676Z,35.40
2022-12-18T12:38:03.667Z,32.90
2022-12-18T12:39:03.709Z,36.20
2022-12-18T12:40:15.222Z,32.90
2022-12-18T12:41:04.706Z,35.00
2022-12-18T12:42:03.657Z,35.00
2022-12-18T12:43:03.623Z,32.70
2022-12-18T12:44:03.621Z,34.10
2022-12-18T12:45:03.622Z,32.10
2022-12-18T12:46:03.763Z,32.70
2022-12-18T12:47:03.581Z,31.60
2022-12-18T12:48:03.564Z,34.10
2022-12-18T12:49:03.570Z,34.50
2022-12-18T12:50:03.576Z,31.50
2022-12-18T12:51:03.582Z,34.20
2022-12-18T12:52:03.593Z,33.80
2022-12-18T12:53:03.577Z,37.60
2022-12-18T12:54:03.546Z,33.20
2022-12-18T12:55:03.604Z,30.50
2022-12-18T12:56:03.543Z,34.80
2022-12-18T12:57:03.522Z,30.40
2022-12-18T12:58:03.579Z,32.60
2022-12-18T12:59:03.556Z,34.00
2022-12-18T13:00:03.507Z,35.70
2022-12-18T13:01:03.533Z,35.10